LKNA Airport Information

Runway Information
Runway 13 Length 7850 ft width 147 ft
Elevation 1548 ft Threshold 0 ft Heading 129
Runway 31 Length 7850 ft Width 147 ft
Elevation 1496 ft Threshold 0 ft Heading 309
Airport Frequencies
Type APP Name APP Frequency 120.225 MHZ
Type GCA Name PRECISION Frequency 123.3 MHZ
Type TWR Name TWR Frequency 126.25 MHZ
Airport Navaids
Type NDB Name Namest Frequency 563 KHZ
Type NDB Name Namest Frequency 515 KHZ
Airport Weather Information & NOTAM
ADDS - METARS form results

(1725 UTC 20 May 2018)
 
METAR text: LKNA 201700Z 06008KT CAVOK 19/06 Q1021 NOSIG RMK BLU BLU
Conditions at: LKNA (NAMEST , CZ) observed 1700 UTC 20 May 2018
Temperature: 19.0°C (66°F)
Dewpoint: 6.0°C (43°F) [RH = 43%]
Pressure (altimeter): 30.15 inches Hg (1021.0 mb)
Winds: from the ENE (60 degrees) at 9 MPH (8 knots; 4.2 m/s)
Visibility: 6 or more miles (10+ km)
Ceiling: ceiling and visibility are OK
Clouds: unknown
Weather: no significant weather observed at this time